sensor_id;sensor_type;location;lat;lon;timestamp;P1;durP1;ratioP1;P2;durP2;ratioP2
4646;SDS011;2336;47.822;7.564;2022-12-05T04:32:39;21.20;;;15.10;;
4646;SDS011;2336;47.822;7.564;2022-12-05T04:35:13;19.73;;;15.13;;
4646;SDS011;2336;47.822;7.564;2022-12-05T04:37:44;18.23;;;13.47;;
4646;SDS011;2336;47.822;7.564;2022-12-05T04:40:18;18.23;;;14.00;;
4646;SDS011;2336;47.822;7.564;2022-12-05T04:42:48;14.33;;;12.30;;
4646;SDS011;2336;47.822;7.564;2022-12-05T04:45:17;18.30;;;13.83;;
4646;SDS011;2336;47.822;7.564;2022-12-05T04:47:48;15.30;;;13.07;;
4646;SDS011;2336;47.822;7.564;2022-12-05T04:50:20;14.30;;;12.57;;
4646;SDS011;2336;47.822;7.564;2022-12-05T04:52:52;15.50;;;12.70;;
4646;SDS011;2336;47.822;7.564;2022-12-05T04:55:21;14.57;;;12.10;;
4646;SDS011;2336;47.822;7.564;2022-12-05T04:57:52;13.87;;;10.93;;
4646;SDS011;2336;47.822;7.564;2022-12-05T05:00:26;12.40;;;11.10;;
4646;SDS011;2336;47.822;7.564;2022-12-05T05:02:57;16.10;;;12.20;;
4646;SDS011;2336;47.822;7.564;2022-12-05T05:05:29;11.77;;;10.40;;
4646;SDS011;2336;47.822;7.564;2022-12-05T05:07:57;12.87;;;11.30;;
4646;SDS011;2336;47.822;7.564;2022-12-05T05:10:26;13.27;;;11.47;;
4646;SDS011;2336;47.822;7.564;2022-12-05T05:12:57;13.77;;;11.63;;
4646;SDS011;2336;47.822;7.564;2022-12-05T05:15:24;26.20;;;13.60;;
4646;SDS011;2336;47.822;7.564;2022-12-05T05:17:51;15.03;;;11.70;;
4646;SDS011;2336;47.822;7.564;2022-12-05T05:20:19;14.00;;;11.70;;
4646;SDS011;2336;47.822;7.564;2022-12-05T05:22:49;14.93;;;11.83;;
4646;SDS011;2336;47.822;7.564;2022-12-05T05:25:17;14.20;;;11.50;;
4646;SDS011;2336;47.822;7.564;2022-12-05T05:27:46;15.63;;;12.97;;
4646;SDS011;2336;47.822;7.564;2022-12-05T05:30:15;14.73;;;12.93;;
4646;SDS011;2336;47.822;7.564;2022-12-05T05:32:42;14.90;;;13.30;;
4646;SDS011;2336;47.822;7.564;2022-12-05T05:35:09;15.10;;;12.80;;
4646;SDS011;2336;47.822;7.564;2022-12-05T05:37:38;16.80;;;14.70;;
4646;SDS011;2336;47.822;7.564;2022-12-05T05:40:06;39.60;;;28.90;;
4646;SDS011;2336;47.822;7.564;2022-12-05T05:42:34;28.53;;;22.33;;
4646;SDS011;2336;47.822;7.564;2022-12-05T05:45:01;35.77;;;27.20;;
4646;SDS011;2336;47.822;7.564;2022-12-05T05:47:28;24.70;;;21.07;;
4646;SDS011;2336;47.822;7.564;2022-12-05T05:49:55;43.10;;;32.83;;
4646;SDS011;2336;47.822;7.564;2022-12-05T05:52:22;27.67;;;21.27;;
4646;SDS011;2336;47.822;7.564;2022-12-05T05:54:50;35.50;;;28.63;;
4646;SDS011;2336;47.822;7.564;2022-12-05T15:33:50;8.90;;;8.10;;
4646;SDS011;2336;47.822;7.564;2022-12-05T15:36:17;9.90;;;9.03;;
4646;SDS011;2336;47.822;7.564;2022-12-05T15:38:47;10.20;;;9.30;;
4646;SDS011;2336;47.822;7.564;2022-12-05T15:41:14;7.40;;;6.70;;
4646;SDS011;2336;47.822;7.564;2022-12-05T15:43:42;6.33;;;5.83;;
4646;SDS011;2336;47.822;7.564;2022-12-05T15:46:22;7.93;;;7.13;;
4646;SDS011;2336;47.822;7.564;2022-12-05T15:48:53;8.13;;;7.53;;
4646;SDS011;2336;47.822;7.564;2022-12-05T15:51:22;24.23;;;21.33;;
4646;SDS011;2336;47.822;7.564;2022-12-05T15:53:52;78.97;;;49.33;;
4646;SDS011;2336;47.822;7.564;2022-12-05T15:56:23;70.33;;;45.37;;
4646;SDS011;2336;47.822;7.564;2022-12-05T15:58:55;22.87;;;18.17;;
4646;SDS011;2336;47.822;7.564;2022-12-05T16:01:27;34.10;;;25.37;;
4646;SDS011;2336;47.822;7.564;2022-12-05T16:03:56;51.97;;;33.40;;
4646;SDS011;2336;47.822;7.564;2022-12-05T16:06:26;26.00;;;16.97;;
4646;SDS011;2336;47.822;7.564;2022-12-05T16:08:56;46.10;;;30.80;;
4646;SDS011;2336;47.822;7.564;2022-12-05T16:11:25;11.20;;;10.10;;
4646;SDS011;2336;47.822;7.564;2022-12-05T16:13:54;12.50;;;11.20;;
4646;SDS011;2336;47.822;7.564;2022-12-05T16:16:23;12.93;;;11.53;;
4646;SDS011;2336;47.822;7.564;2022-12-05T16:18:53;10.73;;;9.73;;
4646;SDS011;2336;47.822;7.564;2022-12-05T16:21:28;7.53;;;6.90;;
4646;SDS011;2336;47.822;7.564;2022-12-05T16:24:00;8.07;;;7.40;;
4646;SDS011;2336;47.822;7.564;2022-12-05T16:26:34;7.00;;;6.40;;
4646;SDS011;2336;47.822;7.564;2022-12-05T16:29:03;7.20;;;6.70;;
4646;SDS011;2336;47.822;7.564;2022-12-05T16:31:32;6.17;;;5.77;;
4646;SDS011;2336;47.822;7.564;2022-12-05T16:34:00;5.87;;;5.57;;
4646;SDS011;2336;47.822;7.564;2022-12-05T16:36:30;5.57;;;5.27;;
4646;SDS011;2336;47.822;7.564;2022-12-05T16:39:00;5.80;;;5.40;;
4646;SDS011;2336;47.822;7.564;2022-12-05T16:41:32;5.47;;;5.17;;
4646;SDS011;2336;47.822;7.564;2022-12-05T16:44:00;5.80;;;5.50;;
4646;SDS011;2336;47.822;7.564;2022-12-05T16:46:44;6.77;;;6.37;;
4646;SDS011;2336;47.822;7.564;2022-12-05T16:49:14;7.80;;;7.20;;
4646;SDS011;2336;47.822;7.564;2022-12-05T16:51:45;9.40;;;8.50;;
4646;SDS011;2336;47.822;7.564;2022-12-05T16:54:21;9.30;;;8.60;;
4646;SDS011;2336;47.822;7.564;2022-12-05T16:56:48;7.87;;;7.37;;
4646;SDS011;2336;47.822;7.564;2022-12-05T16:59:18;8.60;;;7.90;;
4646;SDS011;2336;47.822;7.564;2022-12-05T17:01:47;9.40;;;8.60;;
4646;SDS011;2336;47.822;7.564;2022-12-05T17:04:14;8.23;;;7.63;;
4646;SDS011;2336;47.822;7.564;2022-12-05T17:06:41;7.77;;;7.17;;
4646;SDS011;2336;47.822;7.564;2022-12-05T17:09:09;7.43;;;6.83;;
4646;SDS011;2336;47.822;7.564;2022-12-05T17:11:38;7.17;;;6.43;;
4646;SDS011;2336;47.822;7.564;2022-12-05T17:14:08;7.50;;;6.90;;
4646;SDS011;2336;47.822;7.564;2022-12-05T17:16:38;8.77;;;7.97;;
4646;SDS011;2336;47.822;7.564;2022-12-05T17:19:05;10.23;;;9.30;;
4646;SDS011;2336;47.822;7.564;2022-12-05T17:21:32;9.13;;;8.27;;
4646;SDS011;2336;47.822;7.564;2022-12-05T17:24:00;8.67;;;7.60;;
4646;SDS011;2336;47.822;7.564;2022-12-05T17:26:28;9.13;;;8.40;;
4646;SDS011;2336;47.822;7.564;2022-12-05T17:28:55;8.47;;;7.83;;
4646;SDS011;2336;47.822;7.564;2022-12-05T17:31:22;11.47;;;7.50;;
4646;SDS011;2336;47.822;7.564;2022-12-05T17:33:51;9.60;;;8.70;;
4646;SDS011;2336;47.822;7.564;2022-12-05T17:36:19;38.10;;;29.20;;
4646;SDS011;2336;47.822;7.564;2022-12-05T17:38:45;44.67;;;30.83;;
4646;SDS011;2336;47.822;7.564;2022-12-05T17:41:13;33.53;;;21.53;;
4646;SDS011;2336;47.822;7.564;2022-12-05T17:43:42;45.47;;;27.00;;
4646;SDS011;2336;47.822;7.564;2022-12-05T17:46:10;60.70;;;40.70;;
4646;SDS011;2336;47.822;7.564;2022-12-05T17:48:40;67.93;;;45.73;;
4646;SDS011;2336;47.822;7.564;2022-12-05T17:51:07;59.37;;;41.67;;
4646;SDS011;2336;47.822;7.564;2022-12-05T17:53:35;18.73;;;16.37;;
4646;SDS011;2336;47.822;7.564;2022-12-05T17:56:03;18.57;;;16.60;;
4646;SDS011;2336;47.822;7.564;2022-12-05T17:58:30;14.93;;;13.30;;
4646;SDS011;2336;47.822;7.564;2022-12-05T18:00:58;13.40;;;12.20;;
4646;SDS011;2336;47.822;7.564;2022-12-05T18:03:26;10.30;;;9.30;;
4646;SDS011;2336;47.822;7.564;2022-12-05T18:05:53;9.33;;;8.47;;
4646;SDS011;2336;47.822;7.564;2022-12-05T18:08:20;8.67;;;7.97;;
4646;SDS011;2336;47.822;7.564;2022-12-05T18:10:48;9.17;;;8.40;;
4646;SDS011;2336;47.822;7.564;2022-12-05T18:13:15;9.50;;;8.60;;
4646;SDS011;2336;47.822;7.564;2022-12-05T18:15:44;8.10;;;7.40;;
4646;SDS011;2336;47.822;7.564;2022-12-05T18:18:14;9.17;;;8.37;;
4646;SDS011;2336;47.822;7.564;2022-12-05T18:20:42;10.10;;;9.30;;
4646;SDS011;2336;47.822;7.564;2022-12-05T18:23:08;9.60;;;8.80;;
4646;SDS011;2336;47.822;7.564;2022-12-05T18:25:35;9.90;;;8.60;;
4646;SDS011;2336;47.822;7.564;2022-12-05T18:28:02;8.67;;;7.97;;
4646;SDS011;2336;47.822;7.564;2022-12-05T18:30:29;9.07;;;8.20;;
4646;SDS011;2336;47.822;7.564;2022-12-05T18:32:56;10.00;;;9.00;;
4646;SDS011;2336;47.822;7.564;2022-12-05T18:35:24;10.90;;;9.80;;
4646;SDS011;2336;47.822;7.564;2022-12-05T18:38:05;12.43;;;10.83;;
4646;SDS011;2336;47.822;7.564;2022-12-05T18:40:32;13.13;;;10.80;;
4646;SDS011;2336;47.822;7.564;2022-12-05T18:42:59;11.90;;;10.80;;
4646;SDS011;2336;47.822;7.564;2022-12-05T18:45:26;11.53;;;10.50;;
4646;SDS011;2336;47.822;7.564;2022-12-05T18:47:53;10.00;;;9.00;;
4646;SDS011;2336;47.822;7.564;2022-12-05T18:50:19;9.37;;;8.57;;
4646;SDS011;2336;47.822;7.564;2022-12-05T18:52:47;10.10;;;9.20;;
4646;SDS011;2336;47.822;7.564;2022-12-05T18:55:14;9.07;;;8.37;;
4646;SDS011;2336;47.822;7.564;2022-12-05T18:57:42;8.70;;;8.00;;
4646;SDS011;2336;47.822;7.564;2022-12-05T19:00:09;9.73;;;8.93;;
4646;SDS011;2336;47.822;7.564;2022-12-05T19:02:36;8.90;;;8.10;;
4646;SDS011;2336;47.822;7.564;2022-12-05T19:05:03;8.43;;;7.83;;
4646;SDS011;2336;47.822;7.564;2022-12-05T19:07:31;8.53;;;7.87;;
4646;SDS011;2336;47.822;7.564;2022-12-05T19:09:59;9.50;;;8.60;;
4646;SDS011;2336;47.822;7.564;2022-12-05T19:12:25;9.67;;;8.77;;
4646;SDS011;2336;47.822;7.564;2022-12-05T19:14:52;9.97;;;8.97;;
4646;SDS011;2336;47.822;7.564;2022-12-05T19:17:19;8.73;;;8.03;;
4646;SDS011;2336;47.822;7.564;2022-12-05T19:19:46;9.90;;;9.00;;
4646;SDS011;2336;47.822;7.564;2022-12-05T19:22:13;12.37;;;11.37;;
4646;SDS011;2336;47.822;7.564;2022-12-05T19:24:40;10.87;;;9.97;;
4646;SDS011;2336;47.822;7.564;2022-12-05T19:27:08;10.00;;;9.20;;
4646;SDS011;2336;47.822;7.564;2022-12-05T19:29:35;10.77;;;9.87;;
4646;SDS011;2336;47.822;7.564;2022-12-05T19:32:02;9.33;;;8.53;;
4646;SDS011;2336;47.822;7.564;2022-12-05T19:34:28;10.20;;;9.40;;
4646;SDS011;2336;47.822;7.564;2022-12-05T19:36:55;10.33;;;9.47;;
4646;SDS011;2336;47.822;7.564;2022-12-05T19:39:22;9.83;;;9.03;;
4646;SDS011;2336;47.822;7.564;2022-12-05T19:41:50;11.10;;;10.10;;
4646;SDS011;2336;47.822;7.564;2022-12-05T19:44:20;11.67;;;10.60;;
4646;SDS011;2336;47.822;7.564;2022-12-05T19:46:47;11.17;;;10.17;;
4646;SDS011;2336;47.822;7.564;2022-12-05T19:49:15;11.83;;;10.70;;
4646;SDS011;2336;47.822;7.564;2022-12-05T19:51:42;10.70;;;9.80;;
4646;SDS011;2336;47.822;7.564;2022-12-05T19:54:11;10.50;;;9.60;;
4646;SDS011;2336;47.822;7.564;2022-12-05T19:56:41;11.83;;;10.73;;
4646;SDS011;2336;47.822;7.564;2022-12-05T19:59:09;11.53;;;10.43;;
4646;SDS011;2336;47.822;7.564;2022-12-05T20:01:40;10.40;;;9.43;;
4646;SDS011;2336;47.822;7.564;2022-12-05T20:04:08;11.93;;;10.70;;
4646;SDS011;2336;47.822;7.564;2022-12-05T20:06:37;13.50;;;12.10;;
4646;SDS011;2336;47.822;7.564;2022-12-05T20:09:06;17.23;;;14.00;;
4646;SDS011;2336;47.822;7.564;2022-12-05T20:11:36;12.90;;;11.60;;
4646;SDS011;2336;47.822;7.564;2022-12-05T20:14:03;11.27;;;10.27;;
4646;SDS011;2336;47.822;7.564;2022-12-05T20:16:31;10.20;;;9.30;;
4646;SDS011;2336;47.822;7.564;2022-12-05T20:19:00;9.83;;;8.93;;
4646;SDS011;2336;47.822;7.564;2022-12-05T20:21:28;11.87;;;10.80;;
4646;SDS011;2336;47.822;7.564;2022-12-05T20:23:56;23.17;;;17.70;;
4646;SDS011;2336;47.822;7.564;2022-12-05T20:26:26;25.47;;;20.70;;
4646;SDS011;2336;47.822;7.564;2022-12-05T20:28:54;13.73;;;12.30;;
4646;SDS011;2336;47.822;7.564;2022-12-05T20:31:23;25.50;;;20.57;;
4646;SDS011;2336;47.822;7.564;2022-12-05T20:33:52;20.37;;;17.27;;
4646;SDS011;2336;47.822;7.564;2022-12-05T20:36:21;16.60;;;14.70;;
4646;SDS011;2336;47.822;7.564;2022-12-05T20:38:53;38.70;;;31.03;;
4646;SDS011;2336;47.822;7.564;2022-12-05T20:41:21;27.47;;;22.30;;
4646;SDS011;2336;47.822;7.564;2022-12-05T20:43:51;25.80;;;21.70;;
4646;SDS011;2336;47.822;7.564;2022-12-05T20:46:19;28.40;;;22.63;;
4646;SDS011;2336;47.822;7.564;2022-12-05T20:48:46;30.73;;;24.50;;
4646;SDS011;2336;47.822;7.564;2022-12-05T20:51:14;30.50;;;24.80;;
4646;SDS011;2336;47.822;7.564;2022-12-05T20:53:44;25.67;;;19.70;;
4646;SDS011;2336;47.822;7.564;2022-12-05T20:56:11;26.03;;;20.10;;
4646;SDS011;2336;47.822;7.564;2022-12-05T20:58:39;16.23;;;14.60;;
4646;SDS011;2336;47.822;7.564;2022-12-05T21:01:09;21.03;;;18.13;;
4646;SDS011;2336;47.822;7.564;2022-12-05T21:03:38;17.43;;;15.60;;
4646;SDS011;2336;47.822;7.564;2022-12-05T21:06:06;14.33;;;13.03;;
4646;SDS011;2336;47.822;7.564;2022-12-05T21:08:33;11.20;;;10.20;;
4646;SDS011;2336;47.822;7.564;2022-12-05T21:11:01;11.10;;;9.87;;
4646;SDS011;2336;47.822;7.564;2022-12-05T21:13:27;11.13;;;10.13;;
4646;SDS011;2336;47.822;7.564;2022-12-05T21:15:54;10.67;;;9.73;;
4646;SDS011;2336;47.822;7.564;2022-12-05T21:18:21;9.70;;;8.90;;
4646;SDS011;2336;47.822;7.564;2022-12-05T21:20:57;9.33;;;8.63;;
4646;SDS011;2336;47.822;7.564;2022-12-05T21:23:27;8.77;;;8.07;;
4646;SDS011;2336;47.822;7.564;2022-12-05T21:25:54;10.30;;;9.40;;
4646;SDS011;2336;47.822;7.564;2022-12-05T21:28:22;12.30;;;11.10;;
4646;SDS011;2336;47.822;7.564;2022-12-05T21:30:49;11.47;;;10.37;;
